sensor_id;sensor_type;location;lat;lon;timestamp;temperature;humidity
54429;DHT22;40337;52.978;6.310;2022-12-07T00:00:17;4.00;99.90
54429;DHT22;40337;52.978;6.310;2022-12-07T00:02:43;4.00;99.90
54429;DHT22;40337;52.978;6.310;2022-12-07T00:05:08;4.10;99.90
54429;DHT22;40337;52.978;6.310;2022-12-07T00:07:34;4.00;99.90
54429;DHT22;40337;52.978;6.310;2022-12-07T00:09:59;4.10;99.90
54429;DHT22;40337;52.978;6.310;2022-12-07T00:12:25;4.00;99.90
54429;DHT22;40337;52.978;6.310;2022-12-07T00:14:50;4.00;99.90
54429;DHT22;40337;52.978;6.310;2022-12-07T00:17:16;4.00;99.90
54429;DHT22;40337;52.978;6.310;2022-12-07T00:19:41;4.00;99.90
54429;DHT22;40337;52.978;6.310;2022-12-07T00:22:07;4.00;99.90
54429;DHT22;40337;52.978;6.310;2022-12-07T00:24:32;4.00;99.90
54429;DHT22;40337;52.978;6.310;2022-12-07T00:26:58;4.00;99.90
54429;DHT22;40337;52.978;6.310;2022-12-07T00:29:23;4.00;99.90
54429;DHT22;40337;52.978;6.310;2022-12-07T00:31:49;4.00;99.90
54429;DHT22;40337;52.978;6.310;2022-12-07T00:34:18;4.10;99.90
54429;DHT22;40337;52.978;6.310;2022-12-07T00:36:44;4.10;99.90
54429;DHT22;40337;52.978;6.310;2022-12-07T00:39:10;4.10;99.90
54429;DHT22;40337;52.978;6.310;2022-12-07T00:41:35;4.10;99.90
54429;DHT22;40337;52.978;6.310;2022-12-07T00:44:01;4.20;99.90
54429;DHT22;40337;52.978;6.310;2022-12-07T00:46:27;4.30;99.90
54429;DHT22;40337;52.978;6.310;2022-12-07T00:48:54;4.20;99.90
54429;DHT22;40337;52.978;6.310;2022-12-07T00:51:23;4.30;99.90
54429;DHT22;40337;52.978;6.310;2022-12-07T00:53:49;4.30;99.90
54429;DHT22;40337;52.978;6.310;2022-12-07T00:56:24;4.30;99.90
54429;DHT22;40337;52.978;6.310;2022-12-07T00:58:55;4.30;99.90
54429;DHT22;40337;52.978;6.310;2022-12-07T01:01:21;4.30;99.90
54429;DHT22;40337;52.978;6.310;2022-12-07T01:03:46;4.20;99.90
54429;DHT22;40337;52.978;6.310;2022-12-07T01:06:17;4.30;99.90
54429;DHT22;40337;52.978;6.310;2022-12-07T01:08:43;4.30;99.90
54429;DHT22;40337;52.978;6.310;2022-12-07T01:11:12;4.40;99.90
54429;DHT22;40337;52.978;6.310;2022-12-07T01:13:38;4.40;99.90
54429;DHT22;40337;52.978;6.310;2022-12-07T01:16:05;4.40;99.90
54429;DHT22;40337;52.978;6.310;2022-12-07T01:18:34;4.40;99.90
54429;DHT22;40337;52.978;6.310;2022-12-07T01:21:06;4.40;99.90
54429;DHT22;40337;52.978;6.310;2022-12-07T01:23:33;4.40;99.90
54429;DHT22;40337;52.978;6.310;2022-12-07T01:26:01;4.30;99.90
54429;DHT22;40337;52.978;6.310;2022-12-07T01:28:27;4.40;99.90
54429;DHT22;40337;52.978;6.310;2022-12-07T01:31:01;4.20;99.90
54429;DHT22;40337;52.978;6.310;2022-12-07T01:33:29;4.20;99.90
54429;DHT22;40337;52.978;6.310;2022-12-07T01:36:07;4.20;99.90
54429;DHT22;40337;52.978;6.310;2022-12-07T01:38:33;4.10;99.90
54429;DHT22;40337;52.978;6.310;2022-12-07T01:41:00;4.10;99.90
54429;DHT22;40337;52.978;6.310;2022-12-07T01:43:28;4.00;99.90
54429;DHT22;40337;52.978;6.310;2022-12-07T01:45:55;4.00;99.90
54429;DHT22;40337;52.978;6.310;2022-12-07T01:48:26;4.00;99.90
54429;DHT22;40337;52.978;6.310;2022-12-07T01:50:55;4.00;99.90
54429;DHT22;40337;52.978;6.310;2022-12-07T01:53:21;3.90;99.90
54429;DHT22;40337;52.978;6.310;2022-12-07T01:55:51;3.90;99.90
54429;DHT22;40337;52.978;6.310;2022-12-07T01:58:17;3.90;99.90
54429;DHT22;40337;52.978;6.310;2022-12-07T02:00:43;3.80;99.90
54429;DHT22;40337;52.978;6.310;2022-12-07T02:03:13;3.80;99.90
54429;DHT22;40337;52.978;6.310;2022-12-07T02:05:41;3.80;99.90
54429;DHT22;40337;52.978;6.310;2022-12-07T02:08:09;3.80;99.90
54429;DHT22;40337;52.978;6.310;2022-12-07T02:10:35;3.80;99.90
54429;DHT22;40337;52.978;6.310;2022-12-07T02:13:28;3.80;99.90
54429;DHT22;40337;52.978;6.310;2022-12-07T02:18:49;3.90;99.90
54429;DHT22;40337;52.978;6.310;2022-12-07T02:24:14;4.00;99.90
54429;DHT22;40337;52.978;6.310;2022-12-07T02:29:47;4.00;99.90
54429;DHT22;40337;52.978;6.310;2022-12-07T02:35:07;4.10;99.90
54429;DHT22;40337;52.978;6.310;2022-12-07T02:40:54;4.10;99.90
54429;DHT22;40337;52.978;6.310;2022-12-07T02:45:53;4.10;99.90
54429;DHT22;40337;52.978;6.310;2022-12-07T02:48:21;4.20;99.90
54429;DHT22;40337;52.978;6.310;2022-12-07T02:50:51;4.20;99.90
54429;DHT22;40337;52.978;6.310;2022-12-07T02:53:39;4.20;99.90
54429;DHT22;40337;52.978;6.310;2022-12-07T03:02:15;4.10;99.90
54429;DHT22;40337;52.978;6.310;2022-12-07T03:05:00;4.10;99.90
54429;DHT22;40337;52.978;6.310;2022-12-07T03:15:55;4.10;99.90
54429;DHT22;40337;52.978;6.310;2022-12-07T03:18:25;4.10;99.90
54429;DHT22;40337;52.978;6.310;2022-12-07T03:20:56;4.10;99.90
54429;DHT22;40337;52.978;6.310;2022-12-07T03:23:23;4.10;99.90
54429;DHT22;40337;52.978;6.310;2022-12-07T03:25:54;4.10;99.90
54429;DHT22;40337;52.978;6.310;2022-12-07T03:28:22;4.10;99.90
54429;DHT22;40337;52.978;6.310;2022-12-07T03:31:12;4.10;99.90
54429;DHT22;40337;52.978;6.310;2022-12-07T03:33:54;4.10;99.90
54429;DHT22;40337;52.978;6.310;2022-12-07T03:36:32;4.10;99.90
54429;DHT22;40337;52.978;6.310;2022-12-07T03:39:31;4.00;99.90
54429;DHT22;40337;52.978;6.310;2022-12-07T03:41:59;4.00;99.90
54429;DHT22;40337;52.978;6.310;2022-12-07T03:44:26;4.00;99.90
54429;DHT22;40337;52.978;6.310;2022-12-07T03:54:59;3.90;99.90
54429;DHT22;40337;52.978;6.310;2022-12-07T03:57:27;3.80;99.90
54429;DHT22;40337;52.978;6.310;2022-12-07T03:59:55;3.80;99.90
54429;DHT22;40337;52.978;6.310;2022-12-07T04:02:22;3.80;99.90
54429;DHT22;40337;52.978;6.310;2022-12-07T04:04:49;3.70;99.90
54429;DHT22;40337;52.978;6.310;2022-12-07T04:07:14;3.60;99.90
54429;DHT22;40337;52.978;6.310;2022-12-07T04:09:40;3.60;99.90
54429;DHT22;40337;52.978;6.310;2022-12-07T04:12:06;3.60;99.90
54429;DHT22;40337;52.978;6.310;2022-12-07T04:14:31;3.60;99.90
54429;DHT22;40337;52.978;6.310;2022-12-07T04:16:58;3.50;99.90
54429;DHT22;40337;52.978;6.310;2022-12-07T04:19:41;3.50;99.90
54429;DHT22;40337;52.978;6.310;2022-12-07T04:22:07;3.60;99.90
54429;DHT22;40337;52.978;6.310;2022-12-07T04:24:33;3.60;99.90
54429;DHT22;40337;52.978;6.310;2022-12-07T04:26:59;3.60;99.90
54429;DHT22;40337;52.978;6.310;2022-12-07T04:29:25;3.70;99.90
54429;DHT22;40337;52.978;6.310;2022-12-07T04:31:51;3.70;99.90
54429;DHT22;40337;52.978;6.310;2022-12-07T04:34:18;3.70;99.90
54429;DHT22;40337;52.978;6.310;2022-12-07T04:36:45;3.80;99.90
54429;DHT22;40337;52.978;6.310;2022-12-07T04:39:20;3.80;99.90
54429;DHT22;40337;52.978;6.310;2022-12-07T04:41:46;3.80;99.90
54429;DHT22;40337;52.978;6.310;2022-12-07T04:44:13;3.80;99.90
54429;DHT22;40337;52.978;6.310;2022-12-07T04:46:40;3.80;99.90
54429;DHT22;40337;52.978;6.310;2022-12-07T04:49:06;3.80;99.90
54429;DHT22;40337;52.978;6.310;2022-12-07T04:51:31;3.80;99.90
54429;DHT22;40337;52.978;6.310;2022-12-07T04:53:57;3.70;99.90
54429;DHT22;40337;52.978;6.310;2022-12-07T04:56:24;3.70;99.90
54429;DHT22;40337;52.978;6.310;2022-12-07T04:58:50;3.60;99.90
54429;DHT22;40337;52.978;6.310;2022-12-07T05:01:17;3.50;99.90
54429;DHT22;40337;52.978;6.310;2022-12-07T05:03:43;3.40;99.90
54429;DHT22;40337;52.978;6.310;2022-12-07T05:06:09;3.30;99.90
54429;DHT22;40337;52.978;6.310;2022-12-07T05:08:35;3.20;99.90
54429;DHT22;40337;52.978;6.310;2022-12-07T05:11:02;3.20;99.90
54429;DHT22;40337;52.978;6.310;2022-12-07T05:13:28;3.10;99.90
54429;DHT22;40337;52.978;6.310;2022-12-07T05:15:54;3.10;99.90
54429;DHT22;40337;52.978;6.310;2022-12-07T05:18:20;3.10;99.90
54429;DHT22;40337;52.978;6.310;2022-12-07T05:20:45;3.10;99.90
54429;DHT22;40337;52.978;6.310;2022-12-07T05:23:11;3.10;99.90
54429;DHT22;40337;52.978;6.310;2022-12-07T05:25:37;3.10;99.90
54429;DHT22;40337;52.978;6.310;2022-12-07T05:28:03;3.10;99.90
54429;DHT22;40337;52.978;6.310;2022-12-07T05:30:29;3.10;99.90
54429;DHT22;40337;52.978;6.310;2022-12-07T05:32:55;3.10;99.90
54429;DHT22;40337;52.978;6.310;2022-12-07T05:35:21;3.10;99.90
54429;DHT22;40337;52.978;6.310;2022-12-07T05:37:46;3.10;99.90
54429;DHT22;40337;52.978;6.310;2022-12-07T05:40:13;3.10;99.90
54429;DHT22;40337;52.978;6.310;2022-12-07T05:42:39;3.10;99.90
54429;DHT22;40337;52.978;6.310;2022-12-07T05:45:05;3.00;99.90
54429;DHT22;40337;52.978;6.310;2022-12-07T05:47:31;3.00;99.90
54429;DHT22;40337;52.978;6.310;2022-12-07T05:49:56;3.10;99.90
54429;DHT22;40337;52.978;6.310;2022-12-07T05:52:22;3.10;99.90
54429;DHT22;40337;52.978;6.310;2022-12-07T05:54:48;3.10;99.90
54429;DHT22;40337;52.978;6.310;2022-12-07T05:57:13;3.20;99.90
54429;DHT22;40337;52.978;6.310;2022-12-07T05:59:39;3.20;99.90
54429;DHT22;40337;52.978;6.310;2022-12-07T06:02:08;3.20;99.90
54429;DHT22;40337;52.978;6.310;2022-12-07T06:04:40;3.20;99.90
54429;DHT22;40337;52.978;6.310;2022-12-07T06:07:06;3.20;99.90
54429;DHT22;40337;52.978;6.310;2022-12-07T06:09:33;3.30;99.90
54429;DHT22;40337;52.978;6.310;2022-12-07T06:11:59;3.30;99.90
54429;DHT22;40337;52.978;6.310;2022-12-07T06:14:44;3.30;99.90
54429;DHT22;40337;52.978;6.310;2022-12-07T06:17:10;3.40;99.90
54429;DHT22;40337;52.978;6.310;2022-12-07T06:19:36;3.40;99.90
54429;DHT22;40337;52.978;6.310;2022-12-07T06:22:02;3.40;99.90
54429;DHT22;40337;52.978;6.310;2022-12-07T06:24:30;3.40;99.90
54429;DHT22;40337;52.978;6.310;2022-12-07T06:26:57;3.40;99.90
54429;DHT22;40337;52.978;6.310;2022-12-07T06:29:22;3.30;99.90
54429;DHT22;40337;52.978;6.310;2022-12-07T06:31:48;3.20;99.90
54429;DHT22;40337;52.978;6.310;2022-12-07T06:34:16;3.20;99.90
54429;DHT22;40337;52.978;6.310;2022-12-07T06:36:42;3.20;99.90
54429;DHT22;40337;52.978;6.310;2022-12-07T06:39:08;3.20;99.90
54429;DHT22;40337;52.978;6.310;2022-12-07T06:41:35;3.20;99.90
54429;DHT22;40337;52.978;6.310;2022-12-07T06:44:02;3.30;99.90
54429;DHT22;40337;52.978;6.310;2022-12-07T06:46:27;3.30;99.90
54429;DHT22;40337;52.978;6.310;2022-12-07T06:48:53;3.40;99.90
54429;DHT22;40337;52.978;6.310;2022-12-07T06:51:19;3.40;99.90
54429;DHT22;40337;52.978;6.310;2022-12-07T06:53:44;3.40;99.90
54429;DHT22;40337;52.978;6.310;2022-12-07T06:56:10;3.50;99.90
54429;DHT22;40337;52.978;6.310;2022-12-07T06:58:36;3.50;99.90
54429;DHT22;40337;52.978;6.310;2022-12-07T07:01:01;3.50;99.90
54429;DHT22;40337;52.978;6.310;2022-12-07T07:03:27;3.50;99.90
54429;DHT22;40337;52.978;6.310;2022-12-07T07:05:52;3.40;99.90
54429;DHT22;40337;52.978;6.310;2022-12-07T07:08:18;3.30;99.90
54429;DHT22;40337;52.978;6.310;2022-12-07T07:10:43;3.20;99.90
54429;DHT22;40337;52.978;6.310;2022-12-07T07:13:09;3.20;99.90
54429;DHT22;40337;52.978;6.310;2022-12-07T07:15:37;3.10;99.90
54429;DHT22;40337;52.978;6.310;2022-12-07T07:18:04;3.10;99.90
54429;DHT22;40337;52.978;6.310;2022-12-07T07:20:29;3.10;99.90
54429;DHT22;40337;52.978;6.310;2022-12-07T07:22:55;3.10;99.90
54429;DHT22;40337;52.978;6.310;2022-12-07T07:25:21;3.20;99.90
54429;DHT22;40337;52.978;6.310;2022-12-07T07:27:46;3.30;99.90
54429;DHT22;40337;52.978;6.310;2022-12-07T07:30:12;3.30;99.90
54429;DHT22;40337;52.978;6.310;2022-12-07T07:32:37;3.30;99.90
54429;DHT22;40337;52.978;6.310;2022-12-07T07:35:03;3.40;99.90
54429;DHT22;40337;52.978;6.310;2022-12-07T07:37:29;3.40;99.90
54429;DHT22;40337;52.978;6.310;2022-12-07T07:39:54;3.50;99.90
54429;DHT22;40337;52.978;6.310;2022-12-07T07:42:20;3.50;99.90
54429;DHT22;40337;52.978;6.310;2022-12-07T07:44:45;3.50;99.90
54429;DHT22;40337;52.978;6.310;2022-12-07T07:47:11;3.50;99.90
54429;DHT22;40337;52.978;6.310;2022-12-07T07:49:37;3.50;99.90
54429;DHT22;40337;52.978;6.310;2022-12-07T07:52:02;3.50;99.90
54429;DHT22;40337;52.978;6.310;2022-12-07T07:54:28;3.50;99.90
54429;DHT22;40337;52.978;6.310;2022-12-07T07:56:54;3.50;99.90
54429;DHT22;40337;52.978;6.310;2022-12-07T07:59:19;3.50;99.90
54429;DHT22;40337;52.978;6.310;2022-12-07T08:01:45;3.40;99.90
54429;DHT22;40337;52.978;6.310;2022-12-07T08:04:11;3.40;99.90
54429;DHT22;40337;52.978;6.310;2022-12-07T08:06:36;3.30;99.90
54429;DHT22;40337;52.978;6.310;2022-12-07T08:09:02;3.30;99.90
54429;DHT22;40337;52.978;6.310;2022-12-07T08:11:30;3.20;99.90
54429;DHT22;40337;52.978;6.310;2022-12-07T08:13:55;3.20;99.90
54429;DHT22;40337;52.978;6.310;2022-12-07T08:16:21;3.20;99.90
54429;DHT22;40337;52.978;6.310;2022-12-07T08:18:46;3.20;99.90
54429;DHT22;40337;52.978;6.310;2022-12-07T08:21:14;3.30;99.90
54429;DHT22;40337;52.978;6.310;2022-12-07T08:23:41;3.40;99.90
54429;DHT22;40337;52.978;6.310;2022-12-07T08:26:11;3.40;99.90
54429;DHT22;40337;52.978;6.310;2022-12-07T08:28:37;3.50;99.90
54429;DHT22;40337;52.978;6.310;2022-12-07T08:31:06;3.50;99.90
54429;DHT22;40337;52.978;6.310;2022-12-07T08:33:32;3.50;99.90
54429;DHT22;40337;52.978;6.310;2022-12-07T08:36:02;3.50;99.90
54429;DHT22;40337;52.978;6.310;2022-12-07T08:38:28;3.50;99.90
54429;DHT22;40337;52.978;6.310;2022-12-07T08:40:58;3.50;99.90
54429;DHT22;40337;52.978;6.310;2022-12-07T08:43:24;3.50;99.90
54429;DHT22;40337;52.978;6.310;2022-12-07T08:46:06;3.50;99.90
54429;DHT22;40337;52.978;6.310;2022-12-07T08:48:33;3.50;99.90
54429;DHT22;40337;52.978;6.310;2022-12-07T08:51:01;3.50;99.90
54429;DHT22;40337;52.978;6.310;2022-12-07T08:53:27;3.50;99.90
54429;DHT22;40337;52.978;6.310;2022-12-07T08:55:55;3.50;99.90
54429;DHT22;40337;52.978;6.310;2022-12-07T08:58:22;3.40;99.90
54429;DHT22;40337;52.978;6.310;2022-12-07T09:00:47;3.40;99.90
54429;DHT22;40337;52.978;6.310;2022-12-07T09:03:13;3.40;99.90
54429;DHT22;40337;52.978;6.310;2022-12-07T09:05:38;3.40;99.90
54429;DHT22;40337;52.978;6.310;2022-12-07T09:08:04;3.40;99.90
54429;DHT22;40337;52.978;6.310;2022-12-07T09:10:30;3.50;99.90
54429;DHT22;40337;52.978;6.310;2022-12-07T09:12:56;3.60;99.90
54429;DHT22;40337;52.978;6.310;2022-12-07T09:15:28;3.80;99.90
54429;DHT22;40337;52.978;6.310;2022-12-07T09:17:54;3.90;99.90
54429;DHT22;40337;52.978;6.310;2022-12-07T09:20:20;4.00;99.90
54429;DHT22;40337;52.978;6.310;2022-12-07T09:22:45;4.10;99.90
54429;DHT22;40337;52.978;6.310;2022-12-07T09:25:11;4.10;99.90
54429;DHT22;40337;52.978;6.310;2022-12-07T09:27:36;4.20;99.90
54429;DHT22;40337;52.978;6.310;2022-12-07T09:30:03;4.20;99.90
54429;DHT22;40337;52.978;6.310;2022-12-07T09:32:29;4.20;99.90
54429;DHT22;40337;52.978;6.310;2022-12-07T09:34:55;4.20;99.90
54429;DHT22;40337;52.978;6.310;2022-12-07T09:37:20;4.30;99.90
54429;DHT22;40337;52.978;6.310;2022-12-07T09:39:46;4.30;99.90
54429;DHT22;40337;52.978;6.310;2022-12-07T09:42:29;4.30;99.90
54429;DHT22;40337;52.978;6.310;2022-12-07T09:44:55;4.30;99.90
54429;DHT22;40337;52.978;6.310;2022-12-07T09:47:21;4.30;99.90
54429;DHT22;40337;52.978;6.310;2022-12-07T09:49:47;4.30;99.90
54429;DHT22;40337;52.978;6.310;2022-12-07T09:52:17;4.30;99.90
54429;DHT22;40337;52.978;6.310;2022-12-07T09:54:46;4.30;99.90
54429;DHT22;40337;52.978;6.310;2022-12-07T09:57:13;4.40;99.90
54429;DHT22;40337;52.978;6.310;2022-12-07T09:59:39;4.50;99.90
54429;DHT22;40337;52.978;6.310;2022-12-07T10:02:28;4.50;99.90
54429;DHT22;40337;52.978;6.310;2022-12-07T10:04:59;4.50;99.90
54429;DHT22;40337;52.978;6.310;2022-12-07T10:07:24;4.50;99.90
54429;DHT22;40337;52.978;6.310;2022-12-07T10:09:50;4.50;99.90
54429;DHT22;40337;52.978;6.310;2022-12-07T10:12:15;4.60;99.90
54429;DHT22;40337;52.978;6.310;2022-12-07T10:14:59;4.70;99.90
54429;DHT22;40337;52.978;6.310;2022-12-07T10:17:39;4.90;99.90
54429;DHT22;40337;52.978;6.310;2022-12-07T10:20:17;5.10;99.90
54429;DHT22;40337;52.978;6.310;2022-12-07T10:22:55;5.10;99.90
54429;DHT22;40337;52.978;6.310;2022-12-07T10:25:22;5.10;99.90
54429;DHT22;40337;52.978;6.310;2022-12-07T10:28:12;5.00;99.90
54429;DHT22;40337;52.978;6.310;2022-12-07T10:30:57;5.00;99.90
54429;DHT22;40337;52.978;6.310;2022-12-07T10:33:36;5.00;99.90
54429;DHT22;40337;52.978;6.310;2022-12-07T10:38:51;5.20;99.90
54429;DHT22;40337;52.978;6.310;2022-12-07T10:41:17;5.20;99.90
54429;DHT22;40337;52.978;6.310;2022-12-07T10:43:51;5.30;99.90
54429;DHT22;40337;52.978;6.310;2022-12-07T10:55:22;5.70;99.90
54429;DHT22;40337;52.978;6.310;2022-12-07T11:00:25;6.20;99.90
54429;DHT22;40337;52.978;6.310;2022-12-07T11:03:24;6.30;99.90
54429;DHT22;40337;52.978;6.310;2022-12-07T11:11:41;6.00;99.90
54429;DHT22;40337;52.978;6.310;2022-12-07T11:14:14;5.90;99.90
54429;DHT22;40337;52.978;6.310;2022-12-07T11:16:59;5.80;99.90
54429;DHT22;40337;52.978;6.310;2022-12-07T11:25:27;5.60;99.90
54429;DHT22;40337;52.978;6.310;2022-12-07T11:28:06;5.60;99.90
54429;DHT22;40337;52.978;6.310;2022-12-07T11:30:52;5.50;99.90
54429;DHT22;40337;52.978;6.310;2022-12-07T11:36:31;5.80;99.90
54429;DHT22;40337;52.978;6.310;2022-12-07T11:39:10;6.00;99.90
54429;DHT22;40337;52.978;6.310;2022-12-07T11:41:38;6.20;99.90
54429;DHT22;40337;52.978;6.310;2022-12-07T11:44:24;6.20;99.90
54429;DHT22;40337;52.978;6.310;2022-12-07T11:46:54;6.30;99.90
54429;DHT22;40337;52.978;6.310;2022-12-07T11:49:44;6.50;99.90
54429;DHT22;40337;52.978;6.310;2022-12-07T11:52:22;6.70;99.90
54429;DHT22;40337;52.978;6.310;2022-12-07T11:54:51;6.80;99.90
54429;DHT22;40337;52.978;6.310;2022-12-07T11:57:36;7.00;99.90
54429;DHT22;40337;52.978;6.310;2022-12-07T12:00:08;7.00;99.90
54429;DHT22;40337;52.978;6.310;2022-12-07T12:05:24;7.30;99.90
54429;DHT22;40337;52.978;6.310;2022-12-07T12:07:53;7.20;99.90
54429;DHT22;40337;52.978;6.310;2022-12-07T12:10:42;7.00;99.90
54429;DHT22;40337;52.978;6.310;2022-12-07T12:19:06;6.90;99.90
54429;DHT22;40337;52.978;6.310;2022-12-07T12:21:37;7.20;99.90
54429;DHT22;40337;52.978;6.310;2022-12-07T12:24:10;7.40;99.90
54429;DHT22;40337;52.978;6.310;2022-12-07T12:26:37;7.40;99.90
54429;DHT22;40337;52.978;6.310;2022-12-07T12:29:05;7.30;99.90
54429;DHT22;40337;52.978;6.310;2022-12-07T12:31:35;7.10;99.90
54429;DHT22;40337;52.978;6.310;2022-12-07T12:34:04;6.80;99.90
54429;DHT22;40337;52.978;6.310;2022-12-07T12:36:48;6.40;99.90
54429;DHT22;40337;52.978;6.310;2022-12-07T12:39:16;5.90;99.90
54429;DHT22;40337;52.978;6.310;2022-12-07T12:46:53;5.10;99.90
54429;DHT22;40337;52.978;6.310;2022-12-07T12:54:26;4.80;99.90
54429;DHT22;40337;52.978;6.310;2022-12-07T13:02:39;4.70;99.90
54429;DHT22;40337;52.978;6.310;2022-12-07T13:12:57;4.80;99.90
54429;DHT22;40337;52.978;6.310;2022-12-07T13:18:00;5.00;99.90
54429;DHT22;40337;52.978;6.310;2022-12-07T13:20:50;5.10;99.90
54429;DHT22;40337;52.978;6.310;2022-12-07T13:23:22;5.20;99.90
54429;DHT22;40337;52.978;6.310;2022-12-07T13:28:42;5.10;99.90
54429;DHT22;40337;52.978;6.310;2022-12-07T13:31:16;5.00;99.90
54429;DHT22;40337;52.978;6.310;2022-12-07T13:33:45;5.00;99.90
54429;DHT22;40337;52.978;6.310;2022-12-07T13:36:30;5.00;99.90
54429;DHT22;40337;52.978;6.310;2022-12-07T13:39:11;5.00;99.90
54429;DHT22;40337;52.978;6.310;2022-12-07T13:41:44;5.00;99.90
54429;DHT22;40337;52.978;6.310;2022-12-07T13:44:15;5.00;99.90
54429;DHT22;40337;52.978;6.310;2022-12-07T13:49:28;5.00;99.90
54429;DHT22;40337;52.978;6.310;2022-12-07T13:51:54;5.00;99.90
54429;DHT22;40337;52.978;6.310;2022-12-07T13:54:21;5.00;99.90
54429;DHT22;40337;52.978;6.310;2022-12-07T13:56:50;5.00;99.90
54429;DHT22;40337;52.978;6.310;2022-12-07T13:59:21;5.00;99.90
54429;DHT22;40337;52.978;6.310;2022-12-07T14:01:49;5.00;99.90
54429;DHT22;40337;52.978;6.310;2022-12-07T14:04:34;5.10;99.90
54429;DHT22;40337;52.978;6.310;2022-12-07T14:07:01;5.00;99.90
54429;DHT22;40337;52.978;6.310;2022-12-07T14:09:28;5.00;99.90
54429;DHT22;40337;52.978;6.310;2022-12-07T14:11:55;5.00;99.90
54429;DHT22;40337;52.978;6.310;2022-12-07T14:14:30;4.90;99.90
54429;DHT22;40337;52.978;6.310;2022-12-07T14:17:08;5.00;99.90
54429;DHT22;40337;52.978;6.310;2022-12-07T14:19:52;4.90;99.90
54429;DHT22;40337;52.978;6.310;2022-12-07T14:24:48;4.90;99.90
54429;DHT22;40337;52.978;6.310;2022-12-07T14:27:22;4.80;99.90
54429;DHT22;40337;52.978;6.310;2022-12-07T14:29:48;4.80;99.90
54429;DHT22;40337;52.978;6.310;2022-12-07T14:32:24;4.80;99.90
54429;DHT22;40337;52.978;6.310;2022-12-07T14:37:32;4.80;99.90
54429;DHT22;40337;52.978;6.310;2022-12-07T14:39:58;4.70;99.90
54429;DHT22;40337;52.978;6.310;2022-12-07T14:42:27;4.70;99.90
54429;DHT22;40337;52.978;6.310;2022-12-07T14:44:53;4.70;99.90
54429;DHT22;40337;52.978;6.310;2022-12-07T14:47:19;4.70;99.90
54429;DHT22;40337;52.978;6.310;2022-12-07T14:49:44;4.70;99.90
54429;DHT22;40337;52.978;6.310;2022-12-07T14:52:22;4.70;99.90
54429;DHT22;40337;52.978;6.310;2022-12-07T14:54:48;4.70;99.90
54429;DHT22;40337;52.978;6.310;2022-12-07T14:57:14;4.70;99.90
54429;DHT22;40337;52.978;6.310;2022-12-07T14:59:39;4.70;99.90
54429;DHT22;40337;52.978;6.310;2022-12-07T15:02:06;4.70;99.90
54429;DHT22;40337;52.978;6.310;2022-12-07T15:04:32;4.70;99.90
54429;DHT22;40337;52.978;6.310;2022-12-07T15:07:00;4.70;99.90
54429;DHT22;40337;52.978;6.310;2022-12-07T15:09:26;4.70;99.90
54429;DHT22;40337;52.978;6.310;2022-12-07T15:11:51;4.70;99.90
54429;DHT22;40337;52.978;6.310;2022-12-07T15:14:17;4.70;99.90
54429;DHT22;40337;52.978;6.310;2022-12-07T15:16:43;4.70;99.90
54429;DHT22;40337;52.978;6.310;2022-12-07T15:19:14;4.60;99.90
54429;DHT22;40337;52.978;6.310;2022-12-07T15:21:41;4.60;99.90
54429;DHT22;40337;52.978;6.310;2022-12-07T15:24:08;4.60;99.90
54429;DHT22;40337;52.978;6.310;2022-12-07T15:26:34;4.50;99.90
54429;DHT22;40337;52.978;6.310;2022-12-07T15:28:59;4.50;99.90
54429;DHT22;40337;52.978;6.310;2022-12-07T15:31:25;4.50;99.90
54429;DHT22;40337;52.978;6.310;2022-12-07T15:33:51;4.40;99.90
54429;DHT22;40337;52.978;6.310;2022-12-07T15:36:22;4.40;99.90
54429;DHT22;40337;52.978;6.310;2022-12-07T15:38:48;4.40;99.90
54429;DHT22;40337;52.978;6.310;2022-12-07T15:41:14;4.40;99.90
54429;DHT22;40337;52.978;6.310;2022-12-07T15:43:39;4.40;99.90
54429;DHT22;40337;52.978;6.310;2022-12-07T15:46:23;4.30;99.90
54429;DHT22;40337;52.978;6.310;2022-12-07T15:48:49;4.40;99.90
54429;DHT22;40337;52.978;6.310;2022-12-07T15:51:16;4.40;99.90
54429;DHT22;40337;52.978;6.310;2022-12-07T15:53:41;4.40;99.90
54429;DHT22;40337;52.978;6.310;2022-12-07T15:56:08;4.40;99.90
54429;DHT22;40337;52.978;6.310;2022-12-07T15:58:34;4.40;99.90
54429;DHT22;40337;52.978;6.310;2022-12-07T16:01:00;4.40;99.90
54429;DHT22;40337;52.978;6.310;2022-12-07T16:03:27;4.40;99.90
54429;DHT22;40337;52.978;6.310;2022-12-07T16:05:53;4.30;99.90
54429;DHT22;40337;52.978;6.310;2022-12-07T16:08:18;4.30;99.90
54429;DHT22;40337;52.978;6.310;2022-12-07T16:10:44;4.30;99.90
54429;DHT22;40337;52.978;6.310;2022-12-07T16:13:10;4.30;99.90
54429;DHT22;40337;52.978;6.310;2022-12-07T16:15:40;4.20;99.90
54429;DHT22;40337;52.978;6.310;2022-12-07T16:18:06;4.10;99.90
54429;DHT22;40337;52.978;6.310;2022-12-07T16:20:32;4.10;99.90
54429;DHT22;40337;52.978;6.310;2022-12-07T16:22:58;4.00;99.90
54429;DHT22;40337;52.978;6.310;2022-12-07T16:25:23;3.90;99.90
54429;DHT22;40337;52.978;6.310;2022-12-07T16:27:50;3.90;99.90
54429;DHT22;40337;52.978;6.310;2022-12-07T16:30:15;3.80;99.90
54429;DHT22;40337;52.978;6.310;2022-12-07T16:32:42;3.80;99.90
54429;DHT22;40337;52.978;6.310;2022-12-07T16:35:08;3.70;99.90
54429;DHT22;40337;52.978;6.310;2022-12-07T16:37:34;3.70;99.90
54429;DHT22;40337;52.978;6.310;2022-12-07T16:40:00;3.60;99.90
54429;DHT22;40337;52.978;6.310;2022-12-07T16:42:26;3.60;99.90
54429;DHT22;40337;52.978;6.310;2022-12-07T16:44:52;3.60;99.90
54429;DHT22;40337;52.978;6.310;2022-12-07T16:47:18;3.60;99.90
54429;DHT22;40337;52.978;6.310;2022-12-07T16:49:43;3.50;99.90
54429;DHT22;40337;52.978;6.310;2022-12-07T16:52:09;3.50;99.90
54429;DHT22;40337;52.978;6.310;2022-12-07T16:54:36;3.50;99.90
54429;DHT22;40337;52.978;6.310;2022-12-07T16:57:01;3.40;99.90
54429;DHT22;40337;52.978;6.310;2022-12-07T16:59:27;3.40;99.90
54429;DHT22;40337;52.978;6.310;2022-12-07T17:01:52;3.30;99.90
54429;DHT22;40337;52.978;6.310;2022-12-07T17:04:18;3.30;99.90
54429;DHT22;40337;52.978;6.310;2022-12-07T17:06:43;3.20;99.90
54429;DHT22;40337;52.978;6.310;2022-12-07T17:09:09;3.30;99.90
54429;DHT22;40337;52.978;6.310;2022-12-07T17:11:35;3.30;99.90
54429;DHT22;40337;52.978;6.310;2022-12-07T17:14:01;3.40;99.90
54429;DHT22;40337;52.978;6.310;2022-12-07T17:16:45;3.40;99.90
54429;DHT22;40337;52.978;6.310;2022-12-07T17:19:13;3.40;99.90
54429;DHT22;40337;52.978;6.310;2022-12-07T17:21:40;3.40;99.90
54429;DHT22;40337;52.978;6.310;2022-12-07T17:24:08;3.40;99.90
54429;DHT22;40337;52.978;6.310;2022-12-07T17:26:35;3.40;99.90
54429;DHT22;40337;52.978;6.310;2022-12-07T17:29:01;3.40;99.90
54429;DHT22;40337;52.978;6.310;2022-12-07T17:31:26;3.50;99.90
54429;DHT22;40337;52.978;6.310;2022-12-07T17:33:52;3.50;99.90
54429;DHT22;40337;52.978;6.310;2022-12-07T17:36:23;3.50;99.90
54429;DHT22;40337;52.978;6.310;2022-12-07T17:38:50;3.60;99.90
54429;DHT22;40337;52.978;6.310;2022-12-07T17:41:21;3.60;99.90
54429;DHT22;40337;52.978;6.310;2022-12-07T17:44:07;3.60;99.90
54429;DHT22;40337;52.978;6.310;2022-12-07T17:46:33;3.60;99.90
54429;DHT22;40337;52.978;6.310;2022-12-07T17:49:00;3.60;99.90